Latest Coastal Weather Observations for Mackay

IDQ60701

Issued at 6:12 pm EST Thursday 23 March 2017 (issued every 10 minutes, with the page automatically refreshed every 10 minutes)

About coastal observations | Map of coastal stations | Coastal observations for QLD | Marine services | Other Formats
Station Details ID: 033119 Name: MACKAY M.O Lat: -21.12 Lon: 149.22 Height: 30.26 m
Data from the previous 72 hours. | See also: Recent months at Mackay
Date/Time
EST
Temp
°C
Wind Pressure Rain since
9am
mm
Weather Cloud Vis
km
Sea
Height
m
Swell
Dir  Spd
kts
Gust
kts
hPa Trend Height
m
Period
s
Dir
23/06:00pm 24.2 NNW 2 5 1010.5 R 88.8 Rain - - - - - -
23/05:30pm 24.3 N 4 5 1010.5 - 87.2 - - - - - - -
23/05:00pm 24.5 NNW 8 12 1010.2 - 80.0 - - - - - - -
23/04:30pm 24.6 SW 5 7 1009.6 - 67.8 - Partly cloudy - - - - -
23/04:00pm 24.5 SW 4 5 1009.5 - 61.4 - - - - - - -
23/03:30pm 24.6 SSE 6 11 1009.7 - 61.4 - - - - - - -
23/03:00pm 24.8 SSW 2 3 1009.8 R 59.6 Recent precip. - - - - - -
23/02:30pm 24.7 N 2 4 1009.8 - 59.6 - - - - - - -
23/02:00pm 24.3 NNE 4 5 1009.9 - 59.0 - - - - - - -
23/01:30pm 24.3 SE 4 7 1010.3 - 53.6 - - - - - - -
23/01:00pm 24.6 ESE 2 4 1010.8 - 47.0 - - - - - - -
23/12:46pm 24.4 ENE 3 3 1011.0 - 45.2 - Partly cloudy - - - - -
23/12:30pm 24.3 E 3 6 1011.3 - 44.8 - Partly cloudy - - - - -
23/12:01pm 24.5 S 9 15 1011.4 - 44.6 - Partly cloudy - - - - -
23/12:00pm 24.3 S 10 15 1011.4 R 44.6 Recent precip. Cloudy - - - - -
23/11:30am 24.0 SW 11 15 1011.3 - 44.4 - Partly cloudy - - - - -
23/11:00am 24.0 SW 9 13 1011.9 - 34.4 - Partly cloudy - - - - -
23/10:43am 24.2 WSW 8 13 1012.2 - 14.6 - Partly cloudy - - - - -
23/10:30am 24.4 WSW 8 13 1012.0 - 7.0 - Partly cloudy - - - - -
23/10:22am 24.5 WSW 7 12 1012.3 - 2.6 - Partly cloudy - - - - -
23/10:00am 24.6 SW 6 8 1011.9 - 1.2 - Partly cloudy - - - - -
23/09:30am 24.8 SW 6 9 1012.0 - 0.2 - Partly cloudy - - - - -
23/09:00am 24.7 SSW 5 6 1011.6 R 32.6 Recent precip. Cloudy - - - - -
23/08:30am 24.6 WNW 5 7 1011.4 - 32.6 - Partly cloudy - - - - -
23/08:00am 24.6 WNW 5 8 1011.3 - 32.2 - Partly cloudy - - - - -
23/07:30am 24.5 W 4 7 1010.8 - 32.0 - Partly cloudy - - - - -
23/07:00am 24.5 W 4 5 1010.6 - 31.8 - Partly cloudy - - - - -
23/06:56am 24.5 W 4 5 1010.6 - 31.8 - Partly cloudy - - - - -
23/06:37am 24.5 W 5 8 1010.5 - 29.6 - Partly cloudy - - - - -
23/06:33am 24.7 SSW 4 8 1010.3 - 27.8 - Partly cloudy - - - - -
23/06:30am 24.8 SSE 4 8 1010.3 - 27.6 - Partly cloudy - - - - -
23/06:15am 24.4 SW 6 9 1010.5 - 14.2 - Partly cloudy - - - - -
23/06:00am 24.9 WSW 7 10 1009.9 R 0.8 - Cloudy - - - - -
23/05:30am 25.2 WSW 5 7 1009.6 - 0.8 - Partly cloudy - - - - -
23/05:00am 25.8 SW 2 4 1009.6 - 0.8 - Partly cloudy - - - - -
23/04:30am 26.2 NE 4 6 1009.2 - 0.8 - Partly cloudy - - - - -
23/04:00am 25.9 NE 4 7 1009.2 - 0.8 - Partly cloudy - - - - -
23/03:30am 25.7 NE 5 10 1008.9 - 0.8 - Partly cloudy - - - - -
23/03:00am 25.7 NE 7 12 1008.9 - 0.8 Recent precip. Cloudy - - - - -
23/02:30am 25.9 NE 6 9 1008.9 - 0.8 - Partly cloudy - - - - -
23/02:00am 26.6 NE 6 10 1009.0 - 0.0 - Partly cloudy - - - - -
23/01:30am 26.6 NNE 6 9 1009.5 - 0.0 - Partly cloudy - - - - -
23/01:00am 26.5 NNE 5 10 1009.7 - 0.0 - Partly cloudy - - - - -
23/12:30am 26.5 NE 5 9 1009.9 - 0.0 - Partly cloudy - - - - -
23/12:00am 26.6 NE 5 10 1010.4 - 0.0 - Cloudy - - - - -
 
Date/Time
EST
Temp
°C
Wind Pressure Rain since
9am
mm
Weather Cloud Vis
km
Sea
Height
m
Swell
Dir  Spd
kts
Gust
kts
hPa Trend Height
m
Period
s
Dir
22/11:30pm 26.4 NE 4 7 1010.6 - 0.0 - - - - - - -
22/11:00pm 26.4 NNE 4 6 1011.0 - 0.0 - Partly cloudy - - - - -
22/10:30pm 26.6 NNE 5 9 1011.0 - 0.0 - Partly cloudy - - - - -
22/10:00pm 26.6 NNE 5 9 1010.9 - 0.0 - Partly cloudy - - - - -
22/09:30pm 26.6 NNE 6 11 1010.8 - 0.0 - Partly cloudy - - - - -
22/09:00pm 26.6 NNE 5 10 1010.6 R 0.0 - Cloudy - - - - -
22/08:30pm 26.7 NE 6 9 1010.1 - 0.0 - Partly cloudy - - - - -
22/08:00pm 26.8 NE 7 12 1009.6 - 0.0 - Partly cloudy - - - - -
22/07:30pm 26.7 NE 7 10 1009.4 - 0.0 - Partly cloudy - - - - -
22/07:00pm 26.9 NE 7 13 1009.2 - 0.0 - Partly cloudy - - - - -
22/06:30pm 26.9 NE 6 12 1008.7 - 0.0 - Partly cloudy - - - - -
22/06:00pm 27.1 E 8 11 1008.7 R 0.0 - Cloudy - - - - -
22/05:30pm 27.2 E 8 13 1008.5 - 0.0 - Partly cloudy - - - - -
22/05:00pm 27.3 E 9 12 1008.3 - 0.0 - Partly cloudy - - - - -
22/04:57pm 27.3 E 8 12 1008.3 - 0.0 - Partly cloudy - - - - -
22/04:30pm 28.1 E 8 11 1008.3 - 0.0 - Partly cloudy - - - - -
22/04:00pm 27.5 E 9 14 1008.2 - 0.0 - Partly cloudy - - - - -
22/03:55pm 27.8 E 8 11 1008.2 - 0.0 - Partly cloudy - - - - -
22/03:30pm 27.7 E 7 11 1008.2 - 0.0 - Partly cloudy - - - - -
22/03:17pm 28.1 E 7 11 1008.4 - 0.0 - Partly cloudy - - - - -
22/03:00pm 27.7 ESE 8 13 1008.1 F 0.0 - Partly cloudy - - - - -
22/02:34pm 28.4 ESE 8 12 1008.0 - 0.0 - Partly cloudy - - - - -
22/02:30pm 28.4 ESE 7 12 1008.1 - 0.0 - Partly cloudy - - - - -
22/02:00pm 28.7 ESE 7 13 1008.4 - 0.0 - Partly cloudy - - - - -
22/01:30pm 28.6 SE 8 13 1008.7 - 0.0 - Partly cloudy - - - - -
22/01:15pm 28.4 SE 8 13 1008.8 - 0.0 - Partly cloudy - - - - -
22/01:00pm 28.6 SE 9 13 1009.0 - 0.0 - Partly cloudy - - - - -
22/12:30pm 28.7 SE 8 12 1009.8 - 0.0 - Partly cloudy - - - - -
22/12:00pm 28.9 SE 7 11 1010.5 F 0.0 - Mostly clear - - - - -
22/11:30am 28.9 SE 7 11 1010.7 - 0.0 - Partly cloudy - - - - -
22/11:11am 28.6 SE 8 11 1010.7 - 0.0 - Partly cloudy - - - - -
22/11:00am 28.7 SE 8 12 1010.8 - 0.0 - Partly cloudy - - - - -
22/10:30am 28.2 SSE 8 14 1010.9 - 0.0 - Partly cloudy - - - - -
22/10:00am 27.5 SSE 8 13 1011.1 - 0.0 - Partly cloudy - - - - -
22/09:30am 27.1 SSE 8 11 1011.6 - 0.0 - Partly cloudy - - - - -
22/09:00am 26.2 SSE 7 11 1011.4 R 33.0 - Partly cloudy - - - - -
22/08:57am 26.5 SSE 7 11 1011.3 - 33.0 - Partly cloudy - - - - -
22/08:30am 25.7 S 8 11 1010.9 - 33.0 - - - - - - -
22/08:00am 25.2 S 7 11 1010.6 - 33.0 - - - - - - -
22/07:30am 24.3 SSW 6 7 1010.3 - 33.0 - - - - - - -
22/07:00am 23.7 SW 5 8 1010.0 - 33.0 - Partly cloudy - - - - -
22/06:30am 23.7 SW 5 6 1009.8 - 33.0 - Partly cloudy - - - - -
22/06:00am 23.8 SW 7 9 1009.6 F 33.0 - Cloudy - - - - -
22/05:30am 23.9 SSW 6 7 1009.6 - 33.0 - Cloudy - - - - -
22/05:00am 23.9 SSW 4 5 1009.5 - 33.0 - Partly cloudy - - - - -
22/04:30am 23.8 SSW 4 6 1009.1 - 33.0 - Partly cloudy - - - - -
22/04:00am 23.9 SSW 4 5 1008.6 - 33.0 - Partly cloudy - - - - -
22/03:30am 23.8 SW 4 4 1008.9 - 33.0 - Partly cloudy - - - - -
22/03:00am 23.8 SSE 2 3 1009.1 - 33.0 Recent precip. Cloudy - - - - -
22/02:55am 23.9 SSE 3 4 1009.0 - 33.0 - Partly cloudy - - - - -
22/02:30am 23.9 CALM 0 4 1009.2 - 32.8 - Partly cloudy - - - - -
22/02:17am 23.8 NNW 1 4 1009.3 - 32.8 - Partly cloudy - - - - -
22/02:00am 24.0 NNW 4 6 1009.4 - 32.2 - Partly cloudy - - - - -
22/01:30am 24.1 NNW 5 6 1009.8 - 31.4 - Partly cloudy - - - - -
22/01:00am 24.4 NNE 2 4 1010.0 - 30.0 - Partly cloudy - - - - -
22/12:51am 24.4 E 2 6 1009.9 - 29.2 - Partly cloudy - - - - -
22/12:39am 24.4 ESE 7 11 1010.4 - 28.6 - Partly cloudy - - - - -
22/12:30am 24.4 SSE 5 11 1010.4 - 26.6 - Partly cloudy - - - - -
22/12:00am 24.2 S 9 11 1010.4 - 25.6 Rain Cloudy - - - - -
 
Date/Time
EST
Temp
°C
Wind Pressure Rain since
9am
mm
Weather Cloud Vis
km
Sea
Height
m
Swell
Dir  Spd
kts
Gust
kts
hPa Trend Height
m
Period
s
Dir
21/11:30pm 24.3 WSW 5 8 1010.7 - 22.2 - Partly cloudy - - - - -
21/11:00pm 24.3 SW 7 8 1010.5 - 22.2 - Partly cloudy - - - - -
21/10:30pm 24.5 SW 6 8 1010.7 - 22.0 - Partly cloudy - - - - -
21/10:00pm 24.6 W 6 9 1010.5 - 22.0 - - - - - - -
21/09:30pm 25.0 NNW 4 6 1010.7 - 22.0 - Partly cloudy - - - - -
21/09:00pm 25.2 NW 4 4 1010.6 F 22.0 - Cloudy - - - - -
21/08:30pm 25.0 N 5 9 1010.3 - 22.0 - Partly cloudy - - - - -
21/08:00pm 24.9 NNE 8 13 1010.0 - 22.0 - Partly cloudy - - - - -
21/07:30pm 25.2 NNE 7 13 1009.6 - 22.0 - Partly cloudy - - - - -
21/07:12pm 25.4 NE 7 14 1009.6 - 22.0 - Partly cloudy - - - - -
21/07:00pm 25.5 NNE 7 14 1009.5 - 22.0 - Partly cloudy - - - - -
21/06:59pm 25.5 NNE 7 14 1009.5 - 22.0 - Partly cloudy - - - - -
21/06:30pm 25.5 NE 4 5 1009.2 - 22.0 - Partly cloudy - - - - -
21/06:00pm 25.1 E 7 11 1009.2 R 22.0 Recent precip. Cloudy - - - - -
21/05:30pm 25.3 E 9 13 1009.0 - 22.0 - Partly cloudy - - - - -
21/05:00pm 24.8 NE 6 11 1008.9 - 20.0 - Partly cloudy - - - - -
21/04:30pm 25.0 W 2 4 1008.9 - 7.2 - Partly cloudy - - - - -
21/04:00pm 24.7 SW 1 3 1008.6 - 5.0 - Cloudy - - - - -
21/03:30pm 25.1 NNW 3 6 1008.6 - 2.8 - Partly cloudy - - - - -
21/03:00pm 25.6 CALM 0 0 1008.5 S 1.8 Recent precip. Cloudy - - - - -
21/02:30pm 26.0 SSW 9 11 1008.6 - 1.6 - Partly cloudy - - - - -
21/02:00pm 27.8 E 2 4 1008.6 - 1.6 - Partly cloudy - - - - -
21/01:50pm 27.9 ESE 3 5 1008.7 - 1.6 - Partly cloudy - - - - -
21/01:30pm 28.1 ESE 1 5 1008.9 - 1.6 - Partly cloudy - - - - -
21/01:25pm 27.7 ESE 2 5 1009.0 - 1.6 - Partly cloudy - - - - -
21/01:00pm 27.5 NE 1 3 1009.5 - 1.6 - Partly cloudy - - - - -
21/12:30pm 27.7 S 4 6 1010.0 - 1.6 - Partly cloudy - - - - -
21/12:00pm 27.7 S 5 7 1010.4 F 1.6 - Cloudy - - - - -
21/11:30am 27.8 E 5 7 1010.9 - 1.6 - Partly cloudy - - - - -
21/11:00am 27.7 ESE 6 8 1011.3 - 1.6 - Partly cloudy - - - - -
21/10:30am 26.2 E 6 10 1011.4 - 1.6 - Partly cloudy - - - - -
21/10:29am 26.4 E 5 10 1011.5 - 1.6 - Partly cloudy - - - - -
21/10:00am 25.7 S 5 8 1011.8 - 0.6 - Partly cloudy - - - - -
21/09:30am 25.8 S 7 12 1011.7 - 0.0 - Cloudy - - - - -
21/09:00am 25.8 S 8 11 1011.6 F 58.4 - Mostly cloudy - - - - -
21/08:50am 26.0 S 8 11 1011.5 - 58.4 - Partly cloudy - - - - -
21/08:30am 25.8 SSE 10 14 1011.5 - 58.4 - Partly cloudy - - - - -
21/08:00am 25.1 SSE 9 15 1011.4 - 58.4 - Partly cloudy - - - - -
21/07:30am 24.0 S 9 12 1010.9 - 58.4 - Partly cloudy - - - - -
21/07:00am 24.2 S 8 11 1010.4 - 58.4 - - - - - - -
21/06:30am 24.0 S 8 11 1010.4 - 58.4 - Partly cloudy - - - - -
21/06:25am 24.0 S 8 11 1010.4 - 58.4 - Partly cloudy - - - - -
21/06:00am 24.2 S 7 9 1010.5 R 58.4 - Cloudy - - - - -
21/05:30am 23.9 SSW 6 7 1010.2 - 58.4 - Partly cloudy - - - - -
21/05:00am 23.6 SSW 5 7 1009.7 - 58.4 - Partly cloudy - - - - -
21/04:30am 23.4 SW 6 7 1009.4 - 58.4 - Partly cloudy - - - - -
21/04:16am 23.4 SW 5 6 1009.3 - 58.4 - Partly cloudy - - - - -
21/04:00am 23.4 SW 6 7 1009.2 - 58.4 - Partly cloudy - - - - -
21/03:30am 23.4 SW 5 6 1009.5 - 58.4 - Partly cloudy - - - - -
21/03:26am 23.4 SW 5 6 1009.6 - 58.4 - Partly cloudy - - - - -
21/03:00am 23.5 SW 5 6 1009.6 - 58.4 - Cloudy - - - - -
21/02:45am 23.4 SSW 5 5 1009.7 - 58.4 - Partly cloudy - - - - -
21/02:30am 23.5 SW 4 5 1009.8 - 58.4 - Partly cloudy - - - - -
21/02:00am 23.5 SW 4 5 1009.9 - 58.4 - Partly cloudy - - - - -
21/01:30am 23.5 SW 5 6 1010.3 - 58.4 - Partly cloudy - - - - -
21/01:00am 23.5 SW 5 7 1010.6 - 58.4 - Partly cloudy - - - - -
21/12:30am 23.6 SW 4 6 1010.9 - 58.4 - Partly cloudy - - - - -
21/12:00am 23.7 SW 4 5 1011.0 - 58.4 - Mostly cloudy - - - - -
 
Date/Time
EST
Temp
°C
Wind Pressure Rain since
9am
mm
Weather Cloud Vis
km
Sea
Height
m
Swell
Dir  Spd
kts
Gust
kts
hPa Trend Height
m
Period
s
Dir
20/11:30pm 23.7 SW 5 6 1011.5 - 58.4 - Partly cloudy - - - - -
20/11:00pm 23.6 WSW 3 4 1011.5 - 58.4 - Partly cloudy - - - - -
20/10:30pm 23.7 SW 4 4 1011.6 - 58.4 - Cloudy - - - - -
20/10:00pm 23.7 SE 2 4 1011.6 - 58.4 - Partly cloudy - - - - -
20/09:30pm 23.6 NNE 3 3 1011.6 - 58.4 - Partly cloudy - - - - -
20/09:00pm 23.3 N 4 5 1011.6 F 58.4 Rain Mostly cloudy - - - - -
20/08:30pm 23.2 NW 2 3 1011.3 - 58.0 - Partly cloudy - - - - -
20/08:00pm 23.1 NNW 4 6 1011.0 - 57.8 - Partly cloudy - - - - -
20/07:30pm 23.1 NW 6 8 1011.0 - 57.2 - Partly cloudy - - - - -
20/07:00pm 23.1 NNW 5 9 1010.9 - 54.8 - Partly cloudy - - - - -
20/06:45pm 23.1 NNW 6 9 1010.6 - 51.0 - Partly cloudy - - - - -
20/06:30pm 23.2 NNW 8 11 1010.5 - 48.6 - Partly cloudy - - - - -

Other Formats:

Comma delimited format used in spreadsheet applications
http://www.bom.gov.au/fwo/IDQ60701/IDQ60701.94367.axf

JavaScript Object Notation format (JSON) in row-major order
http://www.bom.gov.au/fwo/IDQ60701/IDQ60701.94367.json